Time,TemperatureF,DewpointF,PressureIn,WindDirection,WindDirectionDegrees,WindSpeedMPH,WindSpeedGustMPH,Humidity,HourlyPrecipIn,Conditions,Clouds,dailyrainin,SoftwareType,DateUTC
2013-09-12 04:52:00,66.6,66.0,29.90,WNW,288,5.0,8.0,97,0.00,,,0.17,weatherlink.com 1.10,2013-09-12 08:52:00,
2013-09-12 04:55:00,66.8,66.0,29.90,WNW,286,4.0,11.0,97,0.00,,,0.17,weatherlink.com 1.10,2013-09-12 08:55:00,
2013-09-12 05:10:00,67.1,66.0,29.91,WNW,298,7.0,9.0,96,0.00,,,0.17,weatherlink.com 1.10,2013-09-12 09:10:00,
2013-09-12 05:25:00,67.0,66.0,29.93,West,273,9.0,13.0,96,0.00,,,0.17,weatherlink.com 1.10,2013-09-12 09:25:00,
2013-09-12 05:40:00,66.8,65.0,29.94,West,259,5.0,14.0,95,0.00,,,0.17,weatherlink.com 1.10,2013-09-12 09:40:00,
2013-09-12 05:55:00,66.5,65.0,29.93,West,267,4.0,10.0,95,0.00,,,0.17,weatherlink.com 1.10,2013-09-12 09:55:00,
2013-09-12 06:10:00,66.3,65.0,29.93,WSW,245,3.0,10.0,95,0.00,,,0.17,weatherlink.com 1.10,2013-09-12 10:10:00,
2013-09-12 06:25:00,66.3,65.0,29.93,WSW,246,3.0,9.0,95,0.00,,,0.17,weatherlink.com 1.10,2013-09-12 10:25:00,
2013-09-12 06:40:00,66.3,65.0,29.93,South,173,3.0,7.0,96,0.00,,,0.17,weatherlink.com 1.10,2013-09-12 10:40:00,
2013-09-12 06:55:00,66.5,65.0,29.93,West,275,2.0,5.0,95,0.00,,,0.17,weatherlink.com 1.10,2013-09-12 10:55:00,
2013-09-12 07:10:00,66.7,65.0,29.93,WNW,303,5.0,10.0,95,0.00,,,0.17,weatherlink.com 1.10,2013-09-12 11:10:00,
2013-09-12 07:25:00,67.0,66.0,29.93,WNW,285,4.0,14.0,95,0.00,,,0.17,weatherlink.com 1.10,2013-09-12 11:25:00,
2013-09-12 07:40:00,67.3,66.0,29.92,WNW,297,3.0,7.0,95,0.00,,,0.17,weatherlink.com 1.10,2013-09-12 11:40:00,
2013-09-12 07:55:00,67.8,66.0,29.92,WNW,286,6.0,8.0,95,0.00,,,0.17,weatherlink.com 1.10,2013-09-12 11:55:00,
2013-09-12 08:10:00,68.4,67.0,29.91,WNW,302,3.0,6.0,95,0.00,,,0.17,weatherlink.com 1.10,2013-09-12 12:10:00,
2013-09-12 08:25:00,69.1,67.0,29.90,West,280,0.0,5.0,94,0.00,,,0.17,weatherlink.com 1.10,2013-09-12 12:25:00,
2013-09-12 08:40:00,69.3,67.0,29.90,West,280,0.0,1.0,93,0.00,,,0.17,weatherlink.com 1.10,2013-09-12 12:40:00,
2013-09-12 08:55:00,69.5,67.0,29.89,SSE,147,2.0,4.0,91,0.00,,,0.17,weatherlink.com 1.10,2013-09-12 12:55:00,
2013-09-12 09:10:00,66.5,64.0,29.88,East,100,8.0,10.0,92,0.00,,,0.17,weatherlink.com 1.10,2013-09-12 13:10:00,
2013-09-12 09:25:00,64.9,64.0,29.88,East,80,5.0,10.0,95,0.00,,,0.17,weatherlink.com 1.10,2013-09-12 13:25:00,
2013-09-12 09:40:00,64.5,63.0,29.87,ENE,63,5.0,7.0,94,0.00,,,0.17,weatherlink.com 1.10,2013-09-12 13:40:00,
2013-09-12 09:55:00,64.7,63.0,29.87,ENE,67,0.0,5.0,95,0.00,,,0.17,weatherlink.com 1.10,2013-09-12 13:55:00,
2013-09-12 10:10:00,64.4,63.0,29.87,ENE,68,0.0,4.0,95,0.00,,,0.17,weatherlink.com 1.10,2013-09-12 14:10:00,
2013-09-12 10:25:00,64.9,64.0,29.86,ENE,61,2.0,5.0,95,0.00,,,0.17,weatherlink.com 1.10,2013-09-12 14:25:00,
2013-09-12 10:40:00,64.4,63.0,29.85,ESE,114,10.0,10.0,94,0.00,,,0.17,weatherlink.com 1.10,2013-09-12 14:40:00,
2013-09-12 10:55:00,64.0,63.0,29.85,ESE,111,7.0,10.0,95,0.00,,,0.17,weatherlink.com 1.10,2013-09-12 14:55:00,
2013-09-12 11:10:00,64.3,63.0,29.85,ESE,119,8.0,9.0,95,0.00,,,0.17,weatherlink.com 1.10,2013-09-12 15:10:00,
2013-09-12 11:25:00,64.5,63.0,29.85,NNW,327,2.0,5.0,96,0.00,,,0.17,weatherlink.com 1.10,2013-09-12 15:25:00,
2013-09-12 11:40:00,65.3,64.0,29.84,ENE,65,3.0,4.0,95,0.00,,,0.17,weatherlink.com 1.10,2013-09-12 15:40:00,
2013-09-12 11:55:00,66.3,64.0,29.83,ENE,65,3.0,5.0,93,0.00,,,0.17,weatherlink.com 1.10,2013-09-12 15:55:00,
2013-09-12 12:10:00,67.8,66.0,29.82,ENE,65,2.0,4.0,92,0.00,,,0.17,weatherlink.com 1.10,2013-09-12 16:10:00,
2013-09-12 12:25:00,66.6,64.0,29.82,ESE,120,9.0,10.0,92,0.00,,,0.17,weatherlink.com 1.10,2013-09-12 16:25:00,
2013-09-12 12:40:00,67.2,66.0,29.80,ESE,117,10.0,10.0,94,0.00,,,0.17,weatherlink.com 1.10,2013-09-12 16:40:00,
2013-09-12 12:56:00,67.8,66.0,29.81,ESE,123,7.0,14.0,94,0.00,,,0.17,weatherlink.com 1.10,2013-09-12 16:56:00,
2013-09-12 13:11:00,68.6,66.0,29.80,ESE,122,9.0,11.0,91,0.00,,,0.17,weatherlink.com 1.10,2013-09-12 17:11:00,
2013-09-12 13:26:00,69.7,68.0,29.80,SE,128,8.0,11.0,93,0.00,,,0.17,weatherlink.com 1.10,2013-09-12 17:26:00,
2013-09-12 13:41:00,70.6,69.0,29.82,West,259,7.0,10.0,94,0.00,,,0.17,weatherlink.com 1.10,2013-09-12 17:41:00,
2013-09-12 13:56:00,70.8,68.0,29.81,WSW,258,11.0,24.0,92,0.00,,,0.17,weatherlink.com 1.10,2013-09-12 17:56:00,
2013-09-12 14:11:00,70.2,69.0,29.79,West,263,5.0,12.0,94,0.00,,,0.17,weatherlink.com 1.10,2013-09-12 18:11:00,
2013-09-12 14:26:00,70.0,69.0,29.77,WNW,295,6.0,9.0,95,0.01,,,0.18,weatherlink.com 1.10,2013-09-12 18:26:00,
2013-09-12 14:41:00,70.2,69.0,29.78,SW,218,3.0,7.0,94,0.01,,,0.18,weatherlink.com 1.10,2013-09-12 18:41:00,
2013-09-12 14:57:00,68.5,67.0,29.78,ESE,107,0.0,5.0,94,0.03,,,0.20,weatherlink.com 1.10,2013-09-12 18:57:00,
2013-09-12 15:11:00,68.5,67.0,29.77,SW,217,0.0,4.0,96,0.03,,,0.20,weatherlink.com 1.10,2013-09-12 19:11:00,
2013-09-12 15:26:00,69.2,68.0,29.76,WNW,293,3.0,7.0,97,0.02,,,0.20,weatherlink.com 1.10,2013-09-12 19:26:00,
2013-09-12 15:41:00,70.0,69.0,29.77,SSW,211,4.0,8.0,96,0.02,,,0.20,weatherlink.com 1.10,2013-09-12 19:41:00,
2013-09-12 15:56:00,69.9,69.0,29.76,SW,223,1.0,6.0,96,0.00,,,0.20,weatherlink.com 1.10,2013-09-12 19:56:00,
2013-09-12 16:11:00,69.7,69.0,29.75,SSW,207,0.0,6.0,96,0.00,,,0.20,weatherlink.com 1.10,2013-09-12 20:11:00,
2013-09-12 16:26:00,69.5,68.0,29.74,South,191,0.0,9.0,96,0.00,,,0.20,weatherlink.com 1.10,2013-09-12 20:26:00,
2013-09-12 16:41:00,68.1,67.0,29.73,SE,136,0.0,5.0,96,0.00,,,0.20,weatherlink.com 1.10,2013-09-12 20:41:00,
2013-09-12 16:56:00,68.3,67.0,29.74,SSE,157,5.0,5.0,96,0.00,,,0.20,weatherlink.com 1.10,2013-09-12 20:56:00,
2013-09-12 17:11:00,68.6,68.0,29.75,NW,309,3.0,11.0,97,0.00,,,0.20,weatherlink.com 1.10,2013-09-12 21:11:00,
2013-09-12 17:26:00,68.7,67.0,29.74,NW,309,5.0,10.0,95,0.00,,,0.20,weatherlink.com 1.10,2013-09-12 21:26:00,
2013-09-12 17:41:00,68.3,67.0,29.74,SSE,152,4.0,7.0,96,0.01,,,0.21,weatherlink.com 1.10,2013-09-12 21:41:00,
2013-09-12 17:56:00,68.1,67.0,29.73,SSW,193,0.0,7.0,96,0.03,,,0.23,weatherlink.com 1.10,2013-09-12 21:56:00,
2013-09-12 18:11:00,67.9,67.0,29.71,South,180,1.0,7.0,96,0.04,,,0.24,weatherlink.com 1.10,2013-09-12 22:11:00,
2013-09-12 18:26:00,67.1,66.0,29.70,SSE,150,0.0,5.0,97,0.06,,,0.26,weatherlink.com 1.10,2013-09-12 22:26:00,
2013-09-12 18:41:00,66.8,66.0,29.68,SE,137,0.0,4.0,97,0.05,,,0.26,weatherlink.com 1.10,2013-09-12 22:41:00,
2013-09-12 18:56:00,65.4,65.0,29.69,SE,140,2.0,9.0,98,0.03,,,0.26,weatherlink.com 1.10,2013-09-12 22:56:00,
2013-09-12 19:11:00,65.7,65.0,29.70,SW,225,3.0,9.0,98,0.02,,,0.26,weatherlink.com 1.10,2013-09-12 23:11:00,
2013-09-12 19:26:00,65.6,65.0,29.71,SW,234,0.0,5.0,98,0.00,,,0.26,weatherlink.com 1.10,2013-09-12 23:26:00,
2013-09-12 19:41:00,65.8,65.0,29.71,SSW,202,0.0,0.0,98,0.00,,,0.26,weatherlink.com 1.10,2013-09-12 23:41:00,
2013-09-12 19:56:00,66.7,66.0,29.72,WSW,244,5.0,6.0,98,0.00,,,0.26,weatherlink.com 1.10,2013-09-12 23:56:00,
2013-09-12 20:11:00,67.0,66.0,29.73,West,281,5.0,10.0,97,0.00,,,0.26,weatherlink.com 1.10,2013-09-13 00:11:00,
2013-09-12 20:26:00,66.9,66.0,29.73,West,281,4.0,11.0,97,0.00,,,0.26,weatherlink.com 1.10,2013-09-13 00:26:00,
2013-09-12 20:41:00,67.0,66.0,29.72,WNW,298,6.0,11.0,97,0.00,,,0.26,weatherlink.com 1.10,2013-09-13 00:41:00,
2013-09-12 20:56:00,67.2,66.0,29.71,WSW,257,2.0,7.0,97,0.00,,,0.26,weatherlink.com 1.10,2013-09-13 00:56:00,
2013-09-12 21:11:00,66.8,66.0,29.68,SSE,159,2.0,4.0,96,0.00,,,0.26,weatherlink.com 1.10,2013-09-13 01:11:00,
2013-09-12 21:26:00,66.6,66.0,29.68,SSE,156,2.0,4.0,98,0.00,,,0.26,weatherlink.com 1.10,2013-09-13 01:26:00,
2013-09-12 21:41:00,66.4,66.0,29.68,East,94,6.0,6.0,97,0.00,,,0.26,weatherlink.com 1.10,2013-09-13 01:41:00,
2013-09-12 21:56:00,63.3,63.0,29.68,ESE,117,3.0,10.0,98,0.00,,,0.26,weatherlink.com 1.10,2013-09-13 01:56:00,
2013-09-12 22:11:00,64.5,64.0,29.68,ESE,118,2.0,4.0,99,0.00,,,0.26,weatherlink.com 1.10,2013-09-13 02:11:00,
2013-09-12 22:26:00,64.5,64.0,29.69,ESE,123,0.0,3.0,98,0.00,,,0.26,weatherlink.com 1.10,2013-09-13 02:26:00,
2013-09-12 22:41:00,64.3,64.0,29.70,SSW,213,0.0,3.0,98,0.00,,,0.26,weatherlink.com 1.10,2013-09-13 02:41:00,
2013-09-12 23:11:00,65.4,65.0,29.69,West,275,4.0,10.0,98,0.00,,,0.26,weatherlink.com 1.10,2013-09-13 03:11:00,
2013-09-12 23:26:00,65.4,65.0,29.67,WNW,300,4.0,8.0,97,0.00,,,0.26,weatherlink.com 1.10,2013-09-13 03:26:00,
2013-09-12 23:41:00,65.3,65.0,29.66,West,281,4.0,8.0,98,0.00,,,0.26,weatherlink.com 1.10,2013-09-13 03:41:00,
2013-09-12 23:56:00,65.3,65.0,29.65,WNW,283,3.0,6.0,98,0.00,,,0.26,weatherlink.com 1.10,2013-09-13 03:56:00,